Sunday, November 18, 2018, 3:25 PM GMT
Back to Local

CYMX, Montreal / Mirabel

Location: , , Canada Lat: 45.683
Local Time: 3:25 PM GMT (15:25 GMT) Lon: -74.033
Time Zone: GMT Elev: 269 ft

Show me the last for .
Show Decoded

2018-11-18 15:00 METAR CYMX 181500Z 00000KT 45SM FEW025 FEW120 FEW250 M10/M13 A3039 RMK CU1AC1CI1
                 CU TR SLP298 =
2018-11-18 14:00 METAR CYMX 181400Z 00000KT 45SM FEW012 FEW050 FEW150 FEW250 M12/M14 A3040 RMK
                 CU1SC1AC1CI1 CU TR SC TR AC TR SLP302 =
2018-11-18 13:00 METAR CYMX 181300Z 00000KT 45SM FEW008 FEW020 SCT220 M15/M16 A3039 RMK SF1SC1CI2
                 SLP299 =
2018-11-18 12:00 METAR CYMX 181200Z 00000KT 45SM FEW008 FEW020 FEW050 FEW250 M15/M17 A3038 RMK
                 SF1SC1SC1CI1 SF TR CI TR SLP296 =
2018-11-18 11:00 METAR CYMX 181100Z 00000KT 25SM R24/5000VP6000FT/U FEW020 M15/M16 A3036 RMK SC1
                 SLP289 =
2018-11-18 10:00 METAR CYMX 181000Z 25003KT 25SM FEW020 M13/M15 A3035 RMK SC1 SC TR SLP286 =
2018-11-18 09:00 METAR CYMX 180900Z 24003KT 25SM R11/3000VP6000FT/D FEW020 M12/M13 A3034 RMK SC1
                 SC TR SLP280 =
2018-11-18 08:00 METAR CYMX 180800Z 27003KT 25SM FEW020 M11/M14 A3033 RMK SC1 SC TR SLP279 =
2018-11-18 07:00 METAR CYMX 180700Z 25004KT 25SM SKC M10/M12 A3032 RMK SLP274 =
2018-11-18 06:00 METAR CYMX 180600Z 24003KT 25SM SKC M09/M12 A3030 RMK SLP268 =
2018-11-18 05:00 METAR CYMX 180500Z 26004KT 220V300 25SM SKC M08/M11 A3028 RMK SLP261 =
2018-11-18 04:00 METAR CYMX 180400Z 28003KT 220V320 25SM SKC M07/M10 A3026 RMK SLP255 =
2018-11-18 03:00 METAR CYMX 180300Z 27003KT 210V290 25SM FEW080 M06/M10 A3025 RMK AC1 AC TR
                 SLP251 =
2018-11-18 02:00 METAR CYMX 180200Z 28005KT 250V310 25SM FEW080 M05/M10 A3022 RMK AC1 AC TR
                 SLP241 =
2018-11-18 01:00 METAR CYMX 180100Z 29003KT 230V340 25SM FEW080 M04/M10 A3020 RMK AC1 AC TR
                 SLP232 =
2018-11-18 00:00 METAR CYMX 180000Z 31006KT 260V340 25SM FEW080 M03/M09 A3017 RMK AC1 AC TR
                 SLP224 =
2018-11-17 23:00 METAR CYMX 172300Z 29003KT 220V350 25SM FEW035 FEW080 M03/M08 A3014 RMK SC1AC1
                 SC TR AC TR SLP213 =
2018-11-17 22:00 METAR CYMX 172200Z 28005KT 240V340 25SM FEW035 M02/M08 A3010 RMK SC2 SLP200 =
2018-11-17 21:00 METAR CYMX 172100Z 30005KT 240V340 45SM FEW034 SCT075 00/M07 A3006 RMK SC2AC2
                 PRESRR SLP187 =
2018-11-17 20:00 METAR CYMX 172000Z 27005KT 230V310 45SM SCT032 SCT075 01/M05 A3003 RMK SC3AC1
                 SLP176 =
2018-11-17 19:00 METAR CYMX 171900Z 31006KT 25SM SCT028 BKN074 01/M03 A3001 RMK SC3AC4 SLP169 =
2018-11-17 18:47 METAR CYMX 171847Z 30007KT 270V340 25SM SCT022 BKN074 01/M03 A3001 RMK SC3AC4
                 SLP167 =
2018-11-17 18:00 METAR CYMX 171800Z 24009KT 220V280 25SM -SN BKN027 OVC060 02/M01 A2999 RMK
                 SC6SC2 SLP160 =
2018-11-17 17:00 METAR CYMX 171700Z 25006KT 10SM -SN BKN026 OVC055 02/M01 A2998 RMK SC7SC1 SLP158
                 =
2018-11-17 16:00 METAR CYMX 171600Z CCA 25006KT 220V280 10SM -SHSN FEW035 BKN057 OVC090 02/M01
                 A2997 RMK SC1SC6AC1 CVCTV CLD EMBD SLP156 =

Support USWX by starting your Amazon purchase here.